Terminal Aerodrome Forecast
Issued by NWS Cleveland, OH

Home | Current Version | Previous Version | Text Only | Print | Product List | Glossary Off
Versions: 1 2 3 4 5 6 7 8 9 10 11 12 13 14 15 16 17 18 19 20 21 22 23 24 25 26 27 28 29 30

000
FTUS41 KCLE 150200 AAA
TAFCLE
TAF AMD
KCLE 150202Z 1502/1606 22005KT P6SM OVC025
     FM150500 20003KT 5SM BR OVC015
     FM150900 18004KT 3SM BR OVC006
     FM151500 17006KT 5SM HZ OVC012
     FM152000 15006KT P6SM OVC025=

USA.gov is the U.S. government's official web portal to all federal, state and local government web resources and services.